Historyczne dane pomiarowe

Dodano dane terminowe – wersja testowa.

Dane z okresu 1951-2018

Wersja bazy: 1.27 [2018-11-28, lista zmian], aktualizacja planowana na 2018-12-07

Dane meteo z obszaru Polski uzyskane na podstawie danych udostępnionych przez Instytut Meteorologii i Gospodarki Wodnej – Państwowy Instytut Badawczy.

 

Wybierz Datę:    

       

TemperaturaWilgotnośćWiatrCiśnienieOpadyŚniegCzas trwania zjawisk
 Stacja t tx tn tng RH VA  wxwx mslp ppp RRR   cm mm wxwxwxwxwxwxwx
1959-11-08 3.6 4.6 1.8- 95.8- 8.0 0.0---- 1.3------------
1959-11-09 4.2 4.7 2.0- 94.8- 8.0 0.7---- 0.5------------
1959-11-10 5.2 6.6 4.0- 90.3- 8.0 2.0---- 6.7------------
1959-11-11 4.9 6.1 2.2- 89.5- 8.0 0.7---- 0.0------------
1959-11-12 4.1 5.4 2.4- 89.5- 8.0 1.0---- 2.9------------
1959-11-13 3.4 3.6 2.0- 89.8- 8.0 4.7---- 0.0------------
1959-11-14 4.9 6.3 2.4- 87.0- 8.0 5.7---- 0.0------------
1959-11-15 1.4 4.4 0.1- 62.5- 2.7 7.7---- 0.0------------
1959-11-16 -3.0 0.2 -5.0- 88.3- 2.7 5.7---- 0.0------------
1959-11-17 -4.0 -3.3 -5.9- 87.5- 8.0 1.7---- 0.2------------
1959-11-18 -0.4 0.5 -3.9- 94.8- 8.0 6.3---- 0.0------------
1959-11-19 1.0 1.1 -0.2- 90.0- 8.0 6.7---- 2.6------------
1959-11-20 1.6 2.5 0.5- 93.5- 8.0 0.7---- 0.1------------
1959-11-21 -0.1 1.3 -1.1- 91.5- 8.0 3.7---- 0.0------------
1959-11-22 -2.1 -0.1 -4.8- 91.8- 3.3 3.3---- 0.0------------
1959-11-23 0.3 0.8 -2.2- 97.0- 8.0 1.3---- 0.0------------
1959-11-24 2.4 3.4 0.4- 96.0- 8.0 0.7---- 0.1------------
1959-11-25 1.0 5.6 -2.4- 86.5- 7.0 0.3---- 0.0------------
1959-11-26 -0.2 1.2 -3.0- 89.8- 8.0 1.0---- 0.0------------
1959-11-27 0.1 1.0 -2.2- 95.3- 8.0 4.0---- 0.0------------
1959-11-28 1.8 3.5 -1.6- 89.5- 8.0 6.0---- 0.2------------
1959-11-29 2.0 3.5 0.9- 94.5- 8.0 1.3---- 0.4------------
1959-11-30 2.6 3.6 1.1- 89.5- 8.0 2.0---- 0.2------------
1959-12-01 1.6 2.5 0.1- 92.5- 8.0 5.3---- 1.4------------
1959-12-02 1.0 1.8 0.4- 93.8- 8.0 6.0---- 8.2------------
1959-12-03 1.2 1.8 0.6- 95.3- 8.0 2.7---- 0.1------------
1959-12-04 -2.2 1.0 -3.6- 88.3- 8.0 8.3---- 0.0------------
1959-12-05-10.4 -3.2-13.6- 78.8- 8.0 10.0---- 0.0------------
1959-12-06-15.6-12.3-17.4- 74.3- 5.7 8.3---- 0.0------------
1959-12-07-17.1-15.1-20.0- 66.5- 7.3 7.0---- 0.0------------
1054.2 ms

 

Źródłem pochodzenia danych jest Instytut Meteorologii i Gospodarki Wodnej – Państwowy Instytut Badawczy. Dane Instytutu Meteorologii i Gospodarki Wodnej – Państwowego Instytutu Badawczego zostały przetworzone.

Dane źródłowe można odnaleźć na stronie https://dane.imgw.pl